createdAt,value
2022-09-30T00:00:34.791Z,6.66
2022-09-30T00:03:00.952Z,6.71
2022-09-30T00:05:27.075Z,6.65
2022-09-30T00:07:53.165Z,6.42
2022-09-30T00:10:19.341Z,6.50
2022-09-30T00:12:45.425Z,6.58
2022-09-30T00:15:11.513Z,6.59
2022-09-30T00:17:37.623Z,6.62
2022-09-30T00:20:03.720Z,6.56
2022-09-30T00:22:29.826Z,6.63
2022-09-30T00:24:55.952Z,6.58
2022-09-30T00:27:22.056Z,6.53
2022-09-30T00:29:48.170Z,6.51
2022-09-30T00:32:14.263Z,6.51
2022-09-30T00:34:40.347Z,6.42
2022-09-30T00:37:06.440Z,6.34
2022-09-30T00:39:32.569Z,6.26
2022-09-30T00:41:58.681Z,6.38
2022-09-30T00:44:24.801Z,6.39
2022-09-30T00:46:50.966Z,6.40
2022-09-30T00:49:17.091Z,6.50
2022-09-30T00:51:43.169Z,6.42
2022-09-30T00:54:09.313Z,6.34
2022-09-30T00:56:35.401Z,6.29
2022-09-30T00:59:01.495Z,6.27
2022-09-30T01:01:27.608Z,6.18
2022-09-30T01:03:53.701Z,6.10
2022-09-30T01:06:19.799Z,6.30
2022-09-30T01:08:45.896Z,6.12
2022-09-30T01:11:11.981Z,6.03
2022-09-30T01:13:38.064Z,6.13
2022-09-30T01:16:04.729Z,6.11
2022-09-30T01:18:30.817Z,6.11
2022-09-30T01:20:56.906Z,6.06
2022-09-30T01:23:23.025Z,6.01
2022-09-30T01:25:49.121Z,6.01
2022-09-30T01:28:15.212Z,6.09
2022-09-30T01:30:41.311Z,5.99
2022-09-30T01:33:07.418Z,5.91
2022-09-30T01:35:33.510Z,5.90
2022-09-30T01:37:59.605Z,5.98
2022-09-30T01:40:25.691Z,6.07
2022-09-30T01:42:51.770Z,6.20
2022-09-30T01:45:17.860Z,6.06
2022-09-30T01:47:43.948Z,6.12
2022-09-30T01:50:10.112Z,6.15
2022-09-30T01:52:36.215Z,5.96
2022-09-30T01:55:02.310Z,6.13
2022-09-30T01:57:28.392Z,6.19
2022-09-30T01:59:54.510Z,6.12
2022-09-30T02:02:20.654Z,6.18
2022-09-30T02:04:46.765Z,5.98
2022-09-30T02:07:12.882Z,5.91
2022-09-30T02:09:39.034Z,5.89
2022-09-30T02:12:05.168Z,5.75
2022-09-30T02:14:31.270Z,5.87
2022-09-30T02:16:57.368Z,5.84
2022-09-30T02:19:23.554Z,5.84
2022-09-30T02:21:49.705Z,5.93
2022-09-30T02:24:15.803Z,5.79
2022-09-30T02:26:41.917Z,5.84
2022-09-30T02:29:08.032Z,5.82
2022-09-30T02:31:34.149Z,5.90
2022-09-30T02:34:00.270Z,5.89
2022-09-30T02:36:26.375Z,5.88
2022-09-30T02:38:52.472Z,5.91
2022-09-30T02:41:18.548Z,5.88
2022-09-30T02:43:44.636Z,5.92
2022-09-30T02:46:10.777Z,5.87
2022-09-30T02:48:36.889Z,5.85
2022-09-30T02:51:03.018Z,5.87
2022-09-30T02:53:29.102Z,5.79
2022-09-30T02:55:55.180Z,5.75
2022-09-30T02:58:21.297Z,5.74
2022-09-30T03:00:47.414Z,5.77
2022-09-30T03:03:13.556Z,5.85
2022-09-30T03:05:39.664Z,5.81
2022-09-30T03:08:05.737Z,5.75
2022-09-30T03:10:31.823Z,5.83
2022-09-30T03:12:57.925Z,5.89
2022-09-30T03:15:24.026Z,5.83
2022-09-30T03:17:50.099Z,5.47
2022-09-30T03:20:16.729Z,5.45
2022-09-30T03:22:42.821Z,5.46
2022-09-30T03:25:08.905Z,5.50
2022-09-30T03:27:35.013Z,5.58
2022-09-30T03:30:01.126Z,5.54
2022-09-30T03:32:27.222Z,5.60
2022-09-30T03:34:53.336Z,5.67
2022-09-30T03:37:19.409Z,5.55
2022-09-30T03:39:45.491Z,5.51
2022-09-30T03:42:11.580Z,5.50
2022-09-30T03:44:37.697Z,5.43
2022-09-30T03:47:03.820Z,5.43
2022-09-30T03:49:29.986Z,5.42
2022-09-30T03:51:58.708Z,5.24
2022-09-30T03:54:24.991Z,5.32
2022-09-30T03:56:51.097Z,5.24
2022-09-30T03:59:17.186Z,5.28
2022-09-30T04:01:43.303Z,5.21
2022-09-30T04:04:09.477Z,5.16
2022-09-30T04:06:35.578Z,5.18
2022-09-30T04:09:01.740Z,5.17
2022-09-30T04:11:27.870Z,5.22
2022-09-30T04:13:53.963Z,5.05
2022-09-30T04:16:20.128Z,4.94
2022-09-30T04:18:46.359Z,5.06
2022-09-30T04:21:12.435Z,5.02
2022-09-30T04:23:38.516Z,4.98
2022-09-30T04:26:04.660Z,5.06
2022-09-30T04:28:30.760Z,5.09
2022-09-30T04:30:56.858Z,5.07
2022-09-30T04:33:22.982Z,5.02
2022-09-30T04:35:49.068Z,4.89
2022-09-30T04:38:15.157Z,4.84
2022-09-30T04:40:42.641Z,4.91
2022-09-30T04:43:08.765Z,4.96
2022-09-30T04:45:34.924Z,4.94
2022-09-30T04:48:01.089Z,4.96
2022-09-30T04:50:27.186Z,4.91
2022-09-30T04:52:53.290Z,4.89
2022-09-30T04:55:19.403Z,4.89
2022-09-30T04:57:45.513Z,4.81
2022-09-30T05:00:11.594Z,4.77
2022-09-30T05:02:37.700Z,4.66
2022-09-30T05:05:03.783Z,4.72
2022-09-30T05:07:29.875Z,4.71
2022-09-30T05:09:55.978Z,4.73
2022-09-30T05:12:22.083Z,4.74
2022-09-30T05:14:48.163Z,4.61
2022-09-30T05:17:14.285Z,4.61
2022-09-30T05:19:40.406Z,4.70
2022-09-30T05:22:06.513Z,4.89
2022-09-30T05:24:32.619Z,4.77
2022-09-30T05:26:58.721Z,4.69
2022-09-30T05:29:24.801Z,4.73
2022-09-30T05:31:50.953Z,4.67
2022-09-30T05:34:17.092Z,4.65
2022-09-30T05:36:43.186Z,4.53
2022-09-30T05:39:09.298Z,4.64
2022-09-30T05:41:35.403Z,4.74
2022-09-30T05:44:01.543Z,4.67
2022-09-30T05:46:27.687Z,4.58
2022-09-30T05:48:53.799Z,4.52
2022-09-30T05:51:19.884Z,4.59
2022-09-30T05:53:46.004Z,4.60
2022-09-30T05:56:12.089Z,4.73
2022-09-30T05:58:38.169Z,4.68
2022-09-30T06:01:10.669Z,4.57
2022-09-30T06:03:39.246Z,4.66
2022-09-30T06:06:05.372Z,4.78
2022-09-30T06:08:31.470Z,4.79
2022-09-30T06:10:57.569Z,4.78
2022-09-30T06:13:23.681Z,4.81
2022-09-30T06:15:50.126Z,4.82
2022-09-30T06:18:17.848Z,4.80
2022-09-30T06:20:44.128Z,4.72
2022-09-30T06:23:10.230Z,4.76
2022-09-30T06:25:36.316Z,4.69
2022-09-30T06:28:02.416Z,4.60
2022-09-30T06:30:32.875Z,4.56
2022-09-30T06:33:01.086Z,4.72
2022-09-30T06:35:27.679Z,4.81
2022-09-30T06:37:53.767Z,4.79
2022-09-30T06:40:19.875Z,4.90
2022-09-30T06:42:45.985Z,5.05
2022-09-30T06:45:21.080Z,5.05
2022-09-30T06:47:58.710Z,5.04
2022-09-30T06:50:26.124Z,5.09
2022-09-30T06:52:52.253Z,5.05
2022-09-30T06:55:18.343Z,5.06
2022-09-30T06:57:44.462Z,5.16
2022-09-30T07:00:10.574Z,5.15
2022-09-30T07:02:36.718Z,5.25
2022-09-30T07:05:02.876Z,5.27
2022-09-30T07:07:28.990Z,5.31
2022-09-30T07:09:59.435Z,5.25
2022-09-30T07:12:25.853Z,5.30
2022-09-30T07:14:51.968Z,5.36
2022-09-30T07:17:18.047Z,5.49
2022-09-30T07:19:44.144Z,5.49
2022-09-30T07:22:10.245Z,5.55
2022-09-30T07:24:36.333Z,5.63
2022-09-30T07:27:02.436Z,5.79
2022-09-30T07:29:36.639Z,5.85
2022-09-30T07:32:10.763Z,5.93
2022-09-30T07:34:36.909Z,6.06
2022-09-30T07:37:02.985Z,6.06
2022-09-30T07:39:29.064Z,6.18
2022-09-30T07:41:55.170Z,6.28
2022-09-30T07:44:21.285Z,6.33
2022-09-30T07:46:47.382Z,6.45
2022-09-30T07:49:13.541Z,6.52
2022-09-30T07:51:39.680Z,6.56
2022-09-30T07:54:05.786Z,6.68
2022-09-30T07:56:45.840Z,6.74
2022-09-30T07:59:18.029Z,6.83
2022-09-30T08:01:44.208Z,6.86
2022-09-30T08:04:10.298Z,6.98
2022-09-30T08:06:36.398Z,7.07
2022-09-30T08:09:02.710Z,7.12
2022-09-30T08:11:28.946Z,7.23
2022-09-30T08:13:55.295Z,7.31
2022-09-30T08:16:21.452Z,7.37
2022-09-30T08:18:47.550Z,7.47
2022-09-30T08:21:13.641Z,7.55
2022-09-30T08:23:39.757Z,7.76
2022-09-30T08:26:05.845Z,7.71
2022-09-30T08:28:31.946Z,7.76
2022-09-30T08:30:58.070Z,7.83
2022-09-30T08:33:24.149Z,7.95
2022-09-30T08:35:50.243Z,8.07
2022-09-30T08:38:16.361Z,8.13
2022-09-30T08:40:42.462Z,8.23
2022-09-30T08:43:08.562Z,8.34
2022-09-30T08:45:35.026Z,8.39
2022-09-30T08:48:01.157Z,8.50
2022-09-30T08:50:27.247Z,8.65
2022-09-30T08:52:53.371Z,8.73
2022-09-30T08:55:19.452Z,8.83
2022-09-30T08:57:47.589Z,8.94
2022-09-30T09:00:14.020Z,9.04
2022-09-30T09:02:40.204Z,9.19
2022-09-30T09:05:06.332Z,9.34
2022-09-30T09:07:32.440Z,9.44
2022-09-30T09:09:58.537Z,9.52
2022-09-30T09:12:24.630Z,9.59
2022-09-30T09:14:50.734Z,9.71
2022-09-30T09:17:16.870Z,9.82
2022-09-30T09:19:43.093Z,9.92
2022-09-30T09:22:09.214Z,10.08
2022-09-30T09:24:35.317Z,10.18
2022-09-30T09:27:01.419Z,10.30
2022-09-30T09:29:27.545Z,10.41
2022-09-30T09:31:53.711Z,10.53
2022-09-30T09:34:19.809Z,10.61
2022-09-30T09:36:46.493Z,10.72
2022-09-30T09:39:12.604Z,10.82
2022-09-30T09:41:38.691Z,10.92
2022-09-30T09:44:05.026Z,10.96
2022-09-30T09:46:31.116Z,11.04
2022-09-30T09:48:57.199Z,11.15
2022-09-30T09:51:23.315Z,11.26
2022-09-30T09:53:49.650Z,11.51
2022-09-30T09:56:15.986Z,11.47
2022-09-30T09:58:42.133Z,11.55
2022-09-30T10:01:09.569Z,11.59
2022-09-30T10:03:35.838Z,11.65
2022-09-30T10:06:01.958Z,11.78
2022-09-30T10:08:28.053Z,11.82
2022-09-30T10:10:54.132Z,11.92
2022-09-30T10:13:20.220Z,12.02
2022-09-30T10:15:46.383Z,12.17
2022-09-30T10:18:12.511Z,12.29
2022-09-30T10:20:38.677Z,12.39
2022-09-30T10:23:04.776Z,12.57
2022-09-30T10:25:30.903Z,12.68
2022-09-30T10:27:57.138Z,12.78
2022-09-30T10:30:23.291Z,12.88
2022-09-30T10:32:49.380Z,12.91
2022-09-30T10:35:15.477Z,13.01
2022-09-30T10:37:41.569Z,13.03
2022-09-30T10:40:07.659Z,13.11
2022-09-30T10:42:33.770Z,13.24
2022-09-30T10:44:59.865Z,13.24
2022-09-30T10:47:25.962Z,13.36
2022-09-30T10:49:52.071Z,13.36
2022-09-30T10:52:18.150Z,13.49
2022-09-30T10:54:44.275Z,13.60
2022-09-30T10:57:10.892Z,13.61
2022-09-30T10:59:36.985Z,13.71
2022-09-30T11:02:05.859Z,13.77
2022-09-30T11:04:32.316Z,13.75
2022-09-30T11:06:58.405Z,13.82
2022-09-30T11:09:24.506Z,13.90
2022-09-30T11:11:50.609Z,13.78
2022-09-30T11:14:16.698Z,13.85
2022-09-30T11:16:42.833Z,13.99
2022-09-30T11:19:08.973Z,14.01
2022-09-30T11:21:35.063Z,13.99
2022-09-30T11:24:01.175Z,14.10
2022-09-30T11:26:27.362Z,14.18
2022-09-30T11:28:53.538Z,14.30
2022-09-30T11:31:19.658Z,14.29
2022-09-30T11:33:45.796Z,14.39
2022-09-30T11:36:11.891Z,14.42
2022-09-30T11:38:37.985Z,14.53
2022-09-30T11:41:04.123Z,14.63
2022-09-30T11:43:30.282Z,14.66
2022-09-30T11:45:56.465Z,14.70
2022-09-30T11:48:22.671Z,14.68
2022-09-30T11:50:48.804Z,14.64
2022-09-30T11:53:14.884Z,14.48
2022-09-30T11:55:41.002Z,14.51
2022-09-30T11:58:28.553Z,14.43
2022-09-30T12:00:53.606Z,14.48
2022-09-30T12:03:19.759Z,14.60
2022-09-30T12:05:45.884Z,14.74
2022-09-30T12:08:11.995Z,14.66
2022-09-30T12:10:38.093Z,14.81
2022-09-30T12:13:04.171Z,14.81
2022-09-30T12:15:30.274Z,14.73
2022-09-30T12:17:56.366Z,14.76
2022-09-30T12:20:22.458Z,14.84
2022-09-30T12:22:48.544Z,14.82
2022-09-30T12:25:14.625Z,14.64
2022-09-30T12:27:40.716Z,14.71
2022-09-30T12:30:06.812Z,14.58
2022-09-30T12:32:32.930Z,14.60
2022-09-30T12:34:59.022Z,14.67
2022-09-30T12:37:25.164Z,14.83
2022-09-30T12:39:51.259Z,14.75
2022-09-30T12:42:17.343Z,14.55
2022-09-30T12:44:43.703Z,14.65
2022-09-30T12:47:09.800Z,14.65
2022-09-30T12:49:35.920Z,14.75
2022-09-30T12:52:03.571Z,14.69
2022-09-30T12:54:30.167Z,14.73
2022-09-30T12:56:56.303Z,14.83
2022-09-30T12:59:22.422Z,14.99
2022-09-30T13:01:48.513Z,14.98
2022-09-30T13:04:14.644Z,14.93
2022-09-30T13:06:41.246Z,15.05
2022-09-30T13:09:07.341Z,15.07
2022-09-30T13:11:33.441Z,15.16
2022-09-30T13:13:59.547Z,15.09
2022-09-30T13:16:29.714Z,14.93
2022-09-30T13:18:56.049Z,14.98
2022-09-30T13:21:22.159Z,15.05
2022-09-30T13:23:48.263Z,14.94
2022-09-30T13:26:14.351Z,14.95
2022-09-30T13:28:40.464Z,15.03
2022-09-30T13:31:06.555Z,15.07
2022-09-30T13:33:32.653Z,15.05
2022-09-30T13:35:58.775Z,15.00
2022-09-30T13:38:24.865Z,14.93
2022-09-30T13:41:01.839Z,15.02
2022-09-30T13:43:28.962Z,15.19
2022-09-30T13:45:55.099Z,15.09
2022-09-30T13:48:21.243Z,15.09
2022-09-30T13:50:47.377Z,15.18
2022-09-30T13:53:13.479Z,15.18
2022-09-30T13:55:39.582Z,15.18
2022-09-30T13:58:05.680Z,15.23
2022-09-30T14:00:31.781Z,15.27
2022-09-30T14:02:57.869Z,15.30
2022-09-30T14:05:23.983Z,15.34
2022-09-30T14:07:50.105Z,15.33
2022-09-30T14:10:16.183Z,15.33
2022-09-30T14:12:42.285Z,15.30
2022-09-30T14:15:08.412Z,15.27
2022-09-30T14:17:34.492Z,15.19
2022-09-30T14:20:00.609Z,15.26
2022-09-30T14:22:26.697Z,15.33
2022-09-30T14:24:52.768Z,15.42
2022-09-30T14:27:18.893Z,15.50
2022-09-30T14:29:44.973Z,15.42
2022-09-30T14:32:11.064Z,15.38
2022-09-30T14:34:37.165Z,15.38
2022-09-30T14:37:03.270Z,15.48
2022-09-30T14:39:29.365Z,15.54
2022-09-30T14:41:55.484Z,15.70
2022-09-30T14:44:21.568Z,15.91
2022-09-30T14:46:47.677Z,16.19
2022-09-30T14:49:14.319Z,16.44
2022-09-30T14:51:40.486Z,16.60
2022-09-30T14:54:06.606Z,16.85
2022-09-30T14:56:32.974Z,16.87
2022-09-30T14:58:59.329Z,16.58
2022-09-30T15:01:25.533Z,16.64
2022-09-30T15:03:51.772Z,16.90
2022-09-30T15:06:17.938Z,16.51
2022-09-30T15:08:44.217Z,16.36
2022-09-30T15:11:10.919Z,16.20
2022-09-30T15:13:37.163Z,16.82
2022-09-30T15:16:03.348Z,17.34
2022-09-30T15:18:29.598Z,17.34
2022-09-30T15:20:55.726Z,18.28
2022-09-30T15:23:21.812Z,17.75
2022-09-30T15:25:47.948Z,18.59
2022-09-30T15:28:14.159Z,19.89
2022-09-30T15:30:40.377Z,20.14
2022-09-30T15:33:06.630Z,20.31
2022-09-30T15:35:32.802Z,20.73
2022-09-30T15:37:58.984Z,20.95
2022-09-30T15:40:25.154Z,21.35
2022-09-30T15:42:51.314Z,21.74
2022-09-30T15:45:17.418Z,21.59
2022-09-30T15:47:43.743Z,21.04
2022-09-30T15:50:09.823Z,20.73
2022-09-30T15:52:35.904Z,19.16
2022-09-30T15:55:02.161Z,18.66
2022-09-30T15:57:28.284Z,18.17
2022-09-30T15:59:54.368Z,17.53
2022-09-30T16:02:20.520Z,17.69
2022-09-30T16:04:46.729Z,18.96
2022-09-30T16:07:12.908Z,19.77
2022-09-30T16:09:39.080Z,19.74
2022-09-30T16:12:05.278Z,19.54
2022-09-30T16:14:33.579Z,19.19
2022-09-30T16:16:59.853Z,19.04
2022-09-30T16:19:26.051Z,18.80
2022-09-30T16:21:52.363Z,18.59
2022-09-30T16:24:18.543Z,18.69
2022-09-30T16:26:44.660Z,18.83
2022-09-30T16:29:15.706Z,18.71
2022-09-30T16:31:43.838Z,18.43
2022-09-30T16:34:10.028Z,18.05
2022-09-30T16:36:36.132Z,17.74
2022-09-30T16:39:02.328Z,17.34
2022-09-30T16:41:28.472Z,17.21
2022-09-30T16:43:54.562Z,17.24
2022-09-30T16:46:20.783Z,17.20
2022-09-30T16:48:46.989Z,17.00
2022-09-30T16:51:13.137Z,16.89
2022-09-30T16:53:39.342Z,16.54
2022-09-30T16:56:05.449Z,16.29
2022-09-30T16:58:31.591Z,16.10
2022-09-30T17:00:57.772Z,15.98
2022-09-30T17:03:23.956Z,15.80
2022-09-30T17:05:50.062Z,15.84
2022-09-30T17:08:16.228Z,15.49
2022-09-30T17:10:42.321Z,15.37
2022-09-30T17:13:08.428Z,15.20
2022-09-30T17:15:34.545Z,14.98
2022-09-30T17:18:00.684Z,14.96
2022-09-30T17:20:26.795Z,14.80
2022-09-30T17:22:52.923Z,14.73
2022-09-30T17:25:19.009Z,14.58
2022-09-30T17:27:45.283Z,14.59
2022-09-30T17:30:12.791Z,14.44
2022-09-30T17:32:38.879Z,14.48
2022-09-30T17:35:04.981Z,14.33
2022-09-30T17:37:31.427Z,14.31
2022-09-30T17:39:58.617Z,14.16
2022-09-30T17:42:24.835Z,14.07
2022-09-30T17:44:50.977Z,14.06
2022-09-30T17:47:17.126Z,13.98
2022-09-30T17:49:43.262Z,13.88
2022-09-30T17:52:09.942Z,13.81
2022-09-30T17:54:36.075Z,13.74
2022-09-30T17:57:02.201Z,13.67
2022-09-30T17:59:28.315Z,13.46
2022-09-30T18:01:54.517Z,13.50
2022-09-30T18:04:20.680Z,13.40
2022-09-30T18:06:46.787Z,13.40
2022-09-30T18:09:12.861Z,13.32
2022-09-30T18:11:43.349Z,13.29
2022-09-30T18:14:10.321Z,13.21
2022-09-30T18:16:36.487Z,13.12
2022-09-30T18:19:02.684Z,13.09
2022-09-30T18:21:29.401Z,13.04
2022-09-30T18:23:55.849Z,12.99
2022-09-30T18:26:21.937Z,12.94
2022-09-30T18:28:48.051Z,12.91
2022-09-30T18:31:14.169Z,12.79
2022-09-30T18:33:40.319Z,12.80
2022-09-30T18:36:06.437Z,12.75
2022-09-30T18:38:32.538Z,12.72
2022-09-30T18:40:58.633Z,12.71
2022-09-30T18:43:24.741Z,12.66
2022-09-30T18:45:50.888Z,12.63
2022-09-30T18:48:17.027Z,12.60
2022-09-30T18:50:43.141Z,13.04
2022-09-30T18:53:10.158Z,13.21
2022-09-30T18:55:36.422Z,12.56
2022-09-30T18:58:03.436Z,12.39
2022-09-30T19:00:29.517Z,12.95
2022-09-30T19:02:55.624Z,13.08
2022-09-30T19:05:21.720Z,13.03
2022-09-30T19:07:47.794Z,12.99
2022-09-30T19:10:14.021Z,12.93
2022-09-30T19:12:40.198Z,12.92
2022-09-30T19:15:06.288Z,12.90
2022-09-30T19:17:32.424Z,12.78
2022-09-30T19:19:58.549Z,12.83
2022-09-30T19:22:24.655Z,12.34
2022-09-30T19:24:50.744Z,12.22
2022-09-30T19:27:17.344Z,12.17
2022-09-30T19:29:43.436Z,12.13
2022-09-30T19:32:09.543Z,12.10
2022-09-30T19:34:35.669Z,12.10
2022-09-30T19:37:01.776Z,12.51
2022-09-30T19:39:37.176Z,12.69
2022-09-30T19:42:08.013Z,12.69
2022-09-30T19:44:34.091Z,12.65
2022-09-30T19:47:00.227Z,12.21
2022-09-30T19:49:26.332Z,12.43
2022-09-30T19:51:52.411Z,12.65
2022-09-30T19:54:18.666Z,12.07
2022-09-30T19:56:45.035Z,12.03
2022-09-30T19:59:11.131Z,12.00
2022-09-30T20:01:37.981Z,11.97
2022-09-30T20:04:04.382Z,11.92
2022-09-30T20:06:30.461Z,11.87
2022-09-30T20:08:56.546Z,11.87
2022-09-30T20:11:22.659Z,11.89
2022-09-30T20:13:48.750Z,11.84
2022-09-30T20:16:14.875Z,11.83
2022-09-30T20:18:41.026Z,11.85
2022-09-30T20:21:07.116Z,11.78
2022-09-30T20:23:33.206Z,11.76
2022-09-30T20:25:59.301Z,11.75
2022-09-30T20:28:25.431Z,11.77
2022-09-30T20:30:51.579Z,11.69
2022-09-30T20:33:17.711Z,11.71
2022-09-30T20:35:43.785Z,11.70
2022-09-30T20:38:09.879Z,11.70
2022-09-30T20:40:35.993Z,11.63
2022-09-30T20:43:02.081Z,11.62
2022-09-30T20:45:28.285Z,11.74
2022-09-30T20:47:54.480Z,11.61
2022-09-30T20:50:20.577Z,11.60
2022-09-30T20:52:46.659Z,11.61
2022-09-30T20:55:12.779Z,11.59
2022-09-30T20:57:38.875Z,11.63
2022-09-30T21:00:05.309Z,11.59
2022-09-30T21:02:32.172Z,11.60
2022-09-30T21:04:58.678Z,11.57
2022-09-30T21:07:25.327Z,11.47
2022-09-30T21:09:51.512Z,11.55
2022-09-30T21:12:17.690Z,11.51
2022-09-30T21:14:43.799Z,11.48
2022-09-30T21:17:10.008Z,11.47
2022-09-30T21:19:36.258Z,11.45
2022-09-30T21:22:02.411Z,11.53
2022-09-30T21:24:28.691Z,11.53
2022-09-30T21:26:54.895Z,11.54
2022-09-30T21:29:21.048Z,11.49
2022-09-30T21:31:47.638Z,11.49
2022-09-30T21:34:13.826Z,11.51
2022-09-30T21:36:40.036Z,11.94
2022-09-30T21:39:06.259Z,11.91
2022-09-30T21:41:32.618Z,11.46
2022-09-30T21:43:59.201Z,11.47
2022-09-30T21:46:25.423Z,11.47
2022-09-30T21:48:51.589Z,11.51
2022-09-30T21:51:17.721Z,11.50
2022-09-30T21:53:43.840Z,11.49
2022-09-30T21:56:09.952Z,11.45
2022-09-30T21:58:36.077Z,11.53
2022-09-30T22:01:02.283Z,11.54
2022-09-30T22:03:28.414Z,11.55
2022-09-30T22:05:54.543Z,11.58
2022-09-30T22:08:21.056Z,11.54
2022-09-30T22:10:47.143Z,11.58
2022-09-30T22:13:13.283Z,11.54
2022-09-30T22:15:39.372Z,11.66
2022-09-30T22:18:09.235Z,11.60
2022-09-30T22:20:37.742Z,11.54
2022-09-30T22:23:03.888Z,11.55
2022-09-30T22:25:29.977Z,11.51
2022-09-30T22:27:56.137Z,11.55
2022-09-30T22:30:22.255Z,11.58
2022-09-30T22:32:48.345Z,11.56
2022-09-30T22:35:14.435Z,11.54
2022-09-30T22:37:40.600Z,11.48
2022-09-30T22:40:06.702Z,11.46
2022-09-30T22:42:32.790Z,11.48
2022-09-30T22:44:58.927Z,11.49
2022-09-30T22:47:25.050Z,11.55
2022-09-30T22:49:51.139Z,11.55
2022-09-30T22:52:17.234Z,11.47
2022-09-30T22:54:43.322Z,11.52
2022-09-30T22:57:09.410Z,11.47
2022-09-30T22:59:35.740Z,11.40
2022-09-30T23:02:01.868Z,11.86
2022-09-30T23:04:27.982Z,11.48
2022-09-30T23:06:54.083Z,11.43
2022-09-30T23:09:20.171Z,11.98
2022-09-30T23:11:46.279Z,11.44
2022-09-30T23:14:12.388Z,11.38
2022-09-30T23:16:38.670Z,11.38
2022-09-30T23:19:04.902Z,11.54
2022-09-30T23:21:31.580Z,11.56
2022-09-30T23:23:57.879Z,11.56
2022-09-30T23:26:23.974Z,11.45
2022-09-30T23:28:50.093Z,11.37
2022-09-30T23:31:16.285Z,11.40
2022-09-30T23:33:42.414Z,11.35
2022-09-30T23:36:08.530Z,11.73
2022-09-30T23:38:34.612Z,11.70
2022-09-30T23:41:00.698Z,11.66
2022-09-30T23:43:26.807Z,11.69
2022-09-30T23:45:52.931Z,11.63
2022-09-30T23:48:19.079Z,11.62
2022-09-30T23:50:45.188Z,11.63
2022-09-30T23:53:11.293Z,11.61
2022-09-30T23:55:37.391Z,11.56
2022-09-30T23:58:03.517Z,11.54
